createdAt,value
2023-04-20T00:00:48.450Z,9.88
2023-04-20T00:03:15.309Z,7.47
2023-04-20T00:05:42.072Z,10.35
2023-04-20T00:08:08.794Z,14.93
2023-04-20T00:10:35.651Z,8.88
2023-04-20T00:13:02.292Z,7.07
2023-04-20T00:15:30.080Z,5.45
2023-04-20T00:17:57.161Z,7.47
2023-04-20T00:20:24.474Z,6.55
2023-04-20T00:22:51.264Z,7.25
2023-04-20T00:25:18.019Z,8.15
2023-04-20T00:27:44.879Z,6.90
2023-04-20T00:30:12.284Z,6.15
2023-04-20T00:32:39.052Z,10.75
2023-04-20T00:35:06.503Z,5.35
2023-04-20T00:37:33.242Z,6.18
2023-04-20T00:39:59.913Z,10.40
2023-04-20T00:42:26.691Z,11.48
2023-04-20T00:44:53.509Z,15.30
2023-04-20T00:47:20.225Z,12.90
2023-04-20T00:49:47.598Z,6.45
2023-04-20T00:52:14.355Z,9.23
2023-04-20T00:54:41.307Z,5.90
2023-04-20T00:57:08.131Z,10.80
2023-04-20T00:59:35.064Z,7.40
2023-04-20T01:02:01.809Z,12.38
2023-04-20T01:04:29.331Z,7.13
2023-04-20T01:06:56.076Z,8.10
2023-04-20T01:09:22.757Z,6.72
2023-04-20T01:11:49.575Z,6.22
2023-04-20T01:14:16.377Z,9.00
2023-04-20T01:16:44.697Z,17.98
2023-04-20T01:19:11.414Z,11.82
2023-04-20T01:21:38.214Z,10.20
2023-04-20T01:24:05.525Z,8.70
2023-04-20T01:26:32.202Z,7.88
2023-04-20T01:28:59.071Z,12.82
2023-04-20T01:31:25.821Z,9.13
2023-04-20T01:33:52.522Z,10.88
2023-04-20T01:36:19.287Z,9.48
2023-04-20T01:38:54.766Z,9.48
2023-04-20T01:41:21.746Z,7.07
2023-04-20T01:43:52.695Z,8.30
2023-04-20T01:46:19.524Z,11.95
2023-04-20T01:48:46.165Z,10.57
2023-04-20T01:51:12.896Z,8.05
2023-04-20T01:53:39.545Z,11.55
2023-04-20T01:56:06.400Z,10.80
2023-04-20T01:58:33.196Z,7.20
2023-04-20T02:01:02.654Z,10.15
2023-04-20T02:03:29.608Z,10.20
2023-04-20T02:05:56.536Z,12.48
2023-04-20T02:08:23.255Z,8.93
2023-04-20T02:10:49.978Z,11.63
2023-04-20T02:13:16.824Z,8.65
2023-04-20T02:15:43.510Z,8.68
2023-04-20T02:18:10.710Z,11.80
2023-04-20T02:20:40.092Z,12.90
2023-04-20T02:23:06.999Z,8.18
2023-04-20T02:25:33.737Z,7.07
2023-04-20T02:28:00.838Z,8.25
2023-04-20T02:30:27.555Z,9.07
2023-04-20T02:32:54.240Z,11.70
2023-04-20T02:35:21.056Z,11.10
2023-04-20T02:37:47.684Z,7.40
2023-04-20T02:40:15.107Z,11.02
2023-04-20T02:42:41.842Z,9.18
2023-04-20T02:45:09.348Z,13.65
2023-04-20T02:47:36.104Z,8.35
2023-04-20T02:50:03.077Z,12.35
2023-04-20T02:52:29.732Z,9.38
2023-04-20T02:54:56.533Z,10.25
2023-04-20T02:57:25.232Z,6.57
2023-04-20T02:59:52.003Z,7.45
2023-04-20T03:02:18.868Z,10.70
2023-04-20T03:04:45.713Z,8.63
2023-04-20T03:07:13.967Z,13.77
2023-04-20T03:09:41.995Z,11.65
2023-04-20T03:12:22.410Z,10.90
2023-04-20T03:14:49.144Z,11.10
2023-04-20T03:17:15.909Z,13.73
2023-04-20T03:19:42.543Z,10.63
2023-04-20T03:22:09.266Z,10.57
2023-04-20T03:24:36.212Z,11.98
2023-04-20T03:27:03.108Z,7.95
2023-04-20T03:29:29.899Z,17.42
2023-04-20T03:31:56.625Z,10.98
2023-04-20T03:34:23.763Z,13.40
2023-04-20T03:36:50.846Z,8.73
2023-04-20T03:39:17.711Z,41.10
2023-04-20T03:41:44.796Z,16.05
2023-04-20T03:44:12.484Z,13.93
2023-04-20T03:46:39.350Z,8.95
2023-04-20T03:49:06.948Z,12.75
2023-04-20T03:51:33.760Z,13.43
2023-04-20T03:54:00.773Z,8.82
2023-04-20T03:56:27.504Z,8.90
2023-04-20T03:58:54.179Z,10.15
2023-04-20T04:01:21.211Z,8.63
2023-04-20T04:03:48.342Z,7.30
2023-04-20T04:06:15.684Z,9.18
2023-04-20T04:08:42.441Z,11.40
2023-04-20T04:11:09.526Z,15.52
2023-04-20T04:13:36.403Z,12.52
2023-04-20T04:16:03.272Z,11.32
2023-04-20T04:18:32.734Z,10.43
2023-04-20T04:20:59.696Z,12.25
2023-04-20T04:23:26.764Z,9.35
2023-04-20T04:25:54.135Z,8.35
2023-04-20T04:28:20.952Z,12.52
2023-04-20T04:30:47.658Z,13.45
2023-04-20T04:33:14.713Z,10.25
2023-04-20T04:35:41.834Z,13.48
2023-04-20T04:38:08.626Z,11.23
2023-04-20T04:40:35.892Z,13.65
2023-04-20T04:43:02.736Z,13.48
2023-04-20T04:45:29.440Z,13.13
2023-04-20T04:47:57.206Z,14.27
2023-04-20T04:50:24.296Z,11.85
2023-04-20T04:52:50.967Z,11.88
2023-04-20T04:55:17.852Z,12.00
2023-04-20T04:57:44.651Z,13.52
2023-04-20T05:00:12.731Z,9.65
2023-04-20T05:02:40.466Z,8.75
2023-04-20T05:05:10.946Z,20.13
2023-04-20T05:07:38.495Z,11.98
2023-04-20T05:10:06.644Z,11.48
2023-04-20T05:12:33.473Z,12.98
2023-04-20T05:15:00.384Z,9.40
2023-04-20T05:17:27.207Z,12.98
2023-04-20T05:19:54.179Z,10.18
2023-04-20T05:22:21.009Z,9.32
2023-04-20T05:24:47.780Z,12.18
2023-04-20T05:27:14.415Z,12.65
2023-04-20T05:29:41.238Z,11.98
2023-04-20T05:32:08.282Z,9.07
2023-04-20T05:34:35.301Z,11.40
2023-04-20T05:37:04.348Z,9.63
2023-04-20T05:39:31.041Z,14.27
2023-04-20T05:41:58.002Z,8.80
2023-04-20T05:44:24.786Z,11.07
2023-04-20T05:46:51.445Z,8.68
2023-04-20T05:49:18.328Z,12.02
2023-04-20T05:51:45.280Z,15.02
2023-04-20T05:54:12.097Z,12.25
2023-04-20T05:56:38.846Z,15.95
2023-04-20T05:59:05.782Z,10.07
2023-04-20T06:01:32.480Z,16.05
2023-04-20T06:03:59.386Z,10.45
2023-04-20T06:06:26.562Z,8.88
2023-04-20T06:08:53.297Z,16.25
2023-04-20T06:11:20.097Z,12.45
2023-04-20T06:13:46.711Z,16.58
2023-04-20T06:16:13.473Z,11.02
2023-04-20T06:18:40.137Z,13.75
2023-04-20T06:21:10.391Z,8.63
2023-04-20T06:23:37.661Z,13.57
2023-04-20T06:26:08.375Z,9.90
2023-04-20T06:28:36.119Z,10.82
2023-04-20T06:31:06.650Z,10.45
2023-04-20T06:33:33.465Z,12.07
2023-04-20T06:36:00.194Z,10.75
2023-04-20T06:38:27.036Z,15.50
2023-04-20T06:40:53.808Z,10.85
2023-04-20T06:43:20.470Z,10.68
2023-04-20T06:45:47.244Z,13.15
2023-04-20T06:48:28.038Z,10.70
2023-04-20T06:50:58.407Z,13.57
2023-04-20T06:53:25.266Z,13.25
2023-04-20T06:55:54.947Z,13.80
2023-04-20T06:58:21.693Z,16.20
2023-04-20T07:00:48.431Z,12.20
2023-04-20T07:03:15.458Z,21.25
2023-04-20T07:05:42.436Z,12.10
2023-04-20T07:08:09.464Z,14.10
2023-04-20T07:10:36.170Z,11.82
2023-04-20T07:13:02.928Z,9.93
2023-04-20T07:15:29.654Z,12.80
2023-04-20T07:17:56.340Z,16.42
2023-04-20T07:20:23.244Z,12.38
2023-04-20T07:22:49.879Z,16.65
2023-04-20T07:25:17.685Z,15.23
2023-04-20T07:27:44.383Z,13.25
2023-04-20T07:30:12.045Z,13.75
2023-04-20T07:32:40.075Z,11.02
2023-04-20T07:35:07.888Z,13.57
2023-04-20T07:37:34.711Z,12.40
2023-04-20T07:40:01.653Z,10.82
2023-04-20T07:42:29.227Z,11.65
2023-04-20T07:44:56.418Z,13.80
2023-04-20T07:47:23.222Z,15.85
2023-04-20T07:49:50.333Z,12.15
2023-04-20T07:52:18.351Z,9.18
2023-04-20T07:54:48.537Z,16.00
2023-04-20T07:57:15.444Z,11.95
2023-04-20T07:59:42.295Z,10.35
2023-04-20T08:02:09.294Z,11.98
2023-04-20T08:04:38.250Z,11.43
2023-04-20T08:07:05.180Z,12.70
2023-04-20T08:09:31.897Z,14.93
2023-04-20T08:11:58.676Z,22.42
2023-04-20T08:14:25.338Z,9.98
2023-04-20T08:16:52.077Z,9.95
2023-04-20T08:19:18.845Z,21.30
2023-04-20T08:21:45.702Z,11.38
2023-04-20T08:24:13.431Z,15.80
2023-04-20T08:26:40.684Z,14.60
2023-04-20T08:29:07.443Z,9.00
2023-04-20T08:31:34.222Z,10.73
2023-04-20T08:34:01.146Z,9.73
2023-04-20T08:36:28.066Z,11.45
2023-04-20T08:39:14.953Z,11.05
2023-04-20T08:41:41.786Z,11.90
2023-04-20T08:44:08.775Z,34.53
2023-04-20T08:46:36.173Z,13.70
2023-04-20T08:49:04.222Z,12.27
2023-04-20T08:51:32.843Z,12.20
2023-04-20T08:54:10.267Z,24.45
2023-04-20T08:56:42.635Z,16.77
2023-04-20T08:59:10.419Z,9.25
2023-04-20T09:01:39.430Z,12.40
2023-04-20T09:04:20.121Z,12.65
2023-04-20T09:06:50.093Z,10.20
2023-04-20T09:09:18.371Z,8.63
2023-04-20T09:11:46.023Z,10.85
2023-04-20T09:14:16.577Z,13.65
2023-04-20T09:16:51.374Z,10.48
2023-04-20T09:19:31.336Z,12.73
2023-04-20T09:21:59.786Z,10.65
2023-04-20T09:24:37.744Z,11.93
2023-04-20T09:27:18.821Z,11.80
2023-04-20T09:30:01.072Z,16.10
2023-04-20T09:32:29.079Z,11.48
2023-04-20T09:34:56.597Z,16.95
2023-04-20T09:37:23.446Z,13.15
2023-04-20T09:39:50.661Z,14.70
2023-04-20T09:42:18.201Z,12.57
2023-04-20T09:44:45.099Z,13.32
2023-04-20T09:47:21.374Z,16.58
2023-04-20T09:49:48.413Z,24.63
2023-04-20T09:52:19.046Z,11.05
2023-04-20T09:54:46.442Z,10.50
2023-04-20T09:57:14.034Z,21.88
2023-04-20T09:59:46.611Z,13.43
2023-04-20T10:02:14.326Z,15.05
2023-04-20T10:04:56.954Z,14.15
2023-04-20T10:10:08.728Z,13.50
2023-04-20T10:12:54.241Z,14.90
2023-04-20T10:15:24.939Z,41.28
2023-04-20T10:17:51.746Z,19.42
2023-04-20T10:20:24.573Z,21.52
2023-04-20T10:22:52.563Z,47.92
2023-04-20T10:25:22.575Z,103.80
2023-04-20T10:28:10.831Z,92.32
2023-04-20T10:30:49.505Z,26.77
2023-04-20T10:33:17.332Z,13.48
2023-04-20T10:35:51.183Z,58.13
2023-04-20T10:38:33.872Z,13.98
2023-04-20T10:41:13.447Z,63.55
2023-04-20T10:43:43.229Z,21.52
2023-04-20T10:46:21.857Z,19.27
2023-04-20T10:48:59.157Z,20.40
2023-04-20T10:51:26.105Z,15.25
2023-04-20T10:54:07.466Z,20.73
2023-04-20T10:56:42.200Z,16.02
2023-04-20T10:59:11.290Z,25.83
2023-04-20T11:01:38.575Z,13.40
2023-04-20T11:04:05.653Z,13.10
2023-04-20T11:06:32.581Z,11.23
2023-04-20T11:08:59.261Z,13.85
2023-04-20T11:11:27.808Z,14.15
2023-04-20T11:14:08.329Z,31.98
2023-04-20T11:16:47.862Z,18.00
2023-04-20T11:19:32.326Z,18.20
2023-04-20T11:21:59.822Z,17.23
2023-04-20T11:24:29.243Z,15.88
2023-04-20T11:26:56.802Z,14.10
2023-04-20T11:29:59.634Z,16.90
2023-04-20T11:35:06.467Z,12.15
2023-04-20T11:37:45.808Z,18.27
2023-04-20T11:40:13.259Z,17.23
2023-04-20T11:42:39.977Z,15.48
2023-04-20T11:45:07.278Z,20.27
2023-04-20T11:47:36.786Z,9.65
2023-04-20T11:50:03.864Z,15.18
2023-04-20T11:52:30.501Z,14.20
2023-04-20T11:54:57.172Z,14.50
2023-04-20T11:57:25.601Z,13.95
2023-04-20T11:59:52.568Z,15.63
2023-04-20T12:02:19.385Z,16.85
2023-04-20T12:04:46.627Z,15.10
2023-04-20T12:07:13.687Z,13.25
2023-04-20T12:09:41.177Z,14.80
2023-04-20T12:12:11.252Z,13.23
2023-04-20T12:14:38.013Z,17.70
2023-04-20T12:17:05.476Z,13.65
2023-04-20T12:19:32.742Z,14.20
2023-04-20T12:21:59.572Z,14.60
2023-04-20T12:24:26.284Z,15.35
2023-04-20T12:26:52.923Z,14.98
2023-04-20T12:29:20.039Z,13.05
2023-04-20T12:31:47.025Z,11.52
2023-04-20T12:34:13.820Z,11.40
2023-04-20T12:36:40.846Z,13.18
2023-04-20T12:39:07.654Z,12.35
2023-04-20T12:41:34.492Z,17.70
2023-04-20T12:44:03.409Z,15.40
2023-04-20T12:46:32.157Z,8.98
2023-04-20T12:48:58.902Z,8.20
2023-04-20T12:51:25.594Z,10.88
2023-04-20T12:53:52.271Z,10.10
2023-04-20T12:56:18.953Z,10.32
2023-04-20T12:58:46.278Z,10.02
2023-04-20T13:01:13.030Z,11.43
2023-04-20T13:03:40.361Z,10.43
2023-04-20T13:06:07.489Z,9.88
2023-04-20T13:08:34.336Z,13.57
2023-04-20T13:11:01.085Z,10.25
2023-04-20T13:13:27.784Z,13.05
2023-04-20T13:15:54.819Z,12.45
2023-04-20T13:18:23.834Z,23.52
2023-04-20T13:20:50.656Z,13.00
2023-04-20T13:23:18.057Z,14.40
2023-04-20T13:25:44.902Z,11.40
2023-04-20T13:28:14.513Z,12.20
2023-04-20T13:30:41.645Z,14.65
2023-04-20T13:33:08.372Z,11.90
2023-04-20T13:35:36.086Z,15.25
2023-04-20T13:38:04.066Z,23.48
2023-04-20T13:40:30.746Z,23.55
2023-04-20T13:42:57.523Z,13.35
2023-04-20T13:45:25.006Z,13.27
2023-04-20T13:47:51.979Z,19.20
2023-04-20T13:50:18.757Z,23.52
2023-04-20T13:52:45.463Z,15.45
2023-04-20T13:55:12.191Z,12.07
2023-04-20T13:57:38.889Z,16.65
2023-04-20T14:00:07.172Z,14.07
2023-04-20T14:02:34.067Z,12.02
2023-04-20T14:05:00.910Z,13.02
2023-04-20T14:07:27.512Z,21.02
2023-04-20T14:09:56.627Z,15.07
2023-04-20T14:12:23.517Z,15.65
2023-04-20T14:14:50.283Z,16.10
2023-04-20T14:17:17.161Z,16.45
2023-04-20T14:19:43.846Z,12.45
2023-04-20T14:22:10.626Z,12.02
2023-04-20T14:24:37.378Z,14.73
2023-04-20T14:27:04.099Z,13.77
2023-04-20T14:29:30.902Z,12.10
2023-04-20T14:31:58.756Z,20.05
2023-04-20T14:34:25.754Z,14.13
2023-04-20T14:36:52.401Z,13.57
2023-04-20T14:39:20.932Z,10.82
2023-04-20T14:41:47.882Z,13.52
2023-04-20T14:44:14.963Z,14.45
2023-04-20T14:46:42.695Z,17.38
2023-04-20T14:49:10.503Z,15.27
2023-04-20T14:51:37.316Z,28.65
2023-04-20T14:54:04.261Z,16.15
2023-04-20T14:56:31.063Z,20.40
2023-04-20T14:58:59.785Z,24.65
2023-04-20T15:01:28.243Z,20.45
2023-04-20T15:03:55.436Z,16.27
2023-04-20T15:06:22.451Z,13.63
2023-04-20T15:08:49.398Z,16.90
2023-04-20T15:11:16.287Z,16.45
2023-04-20T15:13:43.790Z,16.45
2023-04-20T15:16:10.795Z,15.65
2023-04-20T15:18:37.582Z,18.45
2023-04-20T15:21:04.850Z,16.88
2023-04-20T15:23:31.655Z,15.35
2023-04-20T15:25:58.827Z,15.35
2023-04-20T15:28:25.904Z,15.40
2023-04-20T15:30:52.702Z,16.63
2023-04-20T15:33:19.628Z,14.48
2023-04-20T15:35:46.476Z,13.68
2023-04-20T15:38:13.270Z,15.25
2023-04-20T15:40:40.098Z,15.75
2023-04-20T15:43:07.049Z,15.40
2023-04-20T15:45:33.911Z,19.40
2023-04-20T15:48:01.152Z,17.83
2023-04-20T15:50:28.084Z,15.93
2023-04-20T15:52:54.998Z,23.92
2023-04-20T15:55:22.291Z,15.90
2023-04-20T15:57:49.083Z,13.48
2023-04-20T16:00:16.322Z,15.95
2023-04-20T16:02:43.289Z,18.05
2023-04-20T16:05:10.176Z,17.85
2023-04-20T16:07:37.163Z,17.65
2023-04-20T16:10:06.536Z,17.27
2023-04-20T16:12:33.250Z,16.67
2023-04-20T16:15:01.934Z,17.48
2023-04-20T16:17:28.823Z,15.27
2023-04-20T16:19:58.721Z,19.15
2023-04-20T16:22:25.941Z,16.75
2023-04-20T16:24:52.734Z,17.83
2023-04-20T16:27:19.478Z,18.48
2023-04-20T16:29:46.202Z,22.92
2023-04-20T16:32:13.011Z,19.75
2023-04-20T16:34:39.746Z,25.05
2023-04-20T16:37:06.480Z,28.88
2023-04-20T16:39:33.283Z,19.60
2023-04-20T16:41:59.961Z,21.58
2023-04-20T16:44:26.616Z,19.80
2023-04-20T16:46:53.384Z,17.50
2023-04-20T16:49:20.336Z,21.52
2023-04-20T16:51:47.960Z,23.20
2023-04-20T16:54:14.682Z,18.33
2023-04-20T16:56:41.762Z,17.27
2023-04-20T16:59:08.500Z,19.27
2023-04-20T17:01:35.424Z,20.48
2023-04-20T17:04:02.649Z,19.45
2023-04-20T17:06:29.709Z,19.05
2023-04-20T17:09:01.418Z,22.02
2023-04-20T17:11:28.124Z,18.65
2023-04-20T17:13:54.868Z,18.95
2023-04-20T17:16:21.655Z,20.30
2023-04-20T17:18:48.401Z,18.92
2023-04-20T17:21:15.279Z,17.30
2023-04-20T17:23:42.025Z,24.17
2023-04-20T17:26:09.159Z,18.83
2023-04-20T17:28:36.033Z,19.23
2023-04-20T17:31:02.903Z,17.38
2023-04-20T17:33:29.676Z,20.77
2023-04-20T17:35:57.042Z,21.48
2023-04-20T17:38:24.436Z,18.75
2023-04-20T17:40:51.321Z,21.13
2023-04-20T17:43:18.038Z,19.98
2023-04-20T17:45:44.910Z,21.27
2023-04-20T17:48:11.637Z,16.50
2023-04-20T17:50:38.473Z,21.00
2023-04-20T17:53:06.905Z,20.17
2023-04-20T17:55:34.466Z,23.90
2023-04-20T17:58:01.509Z,19.52
2023-04-20T18:00:28.218Z,24.25
2023-04-20T18:02:55.015Z,22.50
2023-04-20T18:05:21.853Z,21.85
2023-04-20T18:07:48.634Z,21.13
2023-04-20T18:10:15.720Z,22.70
2023-04-20T18:12:42.953Z,21.25
2023-04-20T18:15:10.063Z,20.20
2023-04-20T18:17:36.864Z,24.88
2023-04-20T18:20:05.822Z,23.25
2023-04-20T18:22:33.076Z,22.52
2023-04-20T18:24:59.791Z,23.63
2023-04-20T18:27:26.540Z,20.83
2023-04-20T18:29:53.648Z,22.38
2023-04-20T18:32:23.279Z,24.00
2023-04-20T18:34:50.048Z,23.38
2023-04-20T18:37:16.755Z,21.45
2023-04-20T18:39:43.532Z,25.33
2023-04-20T18:42:10.428Z,24.48
2023-04-20T18:44:37.281Z,19.75
2023-04-20T18:47:04.313Z,22.13
2023-04-20T18:49:36.674Z,30.00
2023-04-20T18:54:30.148Z,30.58
2023-04-20T18:56:56.968Z,24.70
2023-04-20T18:59:24.773Z,27.08
2023-04-20T19:01:52.487Z,25.92
2023-04-20T19:04:19.966Z,27.70
2023-04-20T19:06:46.906Z,25.67
2023-04-20T19:09:13.832Z,26.85
2023-04-20T19:11:40.780Z,26.45
2023-04-20T19:14:07.508Z,26.52
2023-04-20T19:16:34.667Z,30.65
2023-04-20T19:19:01.783Z,28.00
2023-04-20T19:21:28.455Z,28.85
2023-04-20T19:23:55.954Z,27.85
2023-04-20T19:26:23.455Z,27.30
2023-04-20T19:28:50.365Z,30.00
2023-04-20T19:31:17.194Z,29.88
2023-04-20T19:33:44.181Z,28.90
2023-04-20T19:36:10.995Z,28.27
2023-04-20T19:38:38.724Z,28.77
2023-04-20T19:41:06.435Z,30.00
2023-04-20T19:43:33.173Z,28.45
2023-04-20T19:45:59.974Z,28.52
2023-04-20T19:48:26.864Z,31.40
2023-04-20T19:50:56.590Z,31.40
2023-04-20T19:53:25.157Z,29.25
2023-04-20T19:55:51.898Z,31.83
2023-04-20T19:58:19.072Z,30.67
2023-04-20T20:00:46.084Z,32.50
2023-04-20T20:03:14.927Z,30.85
2023-04-20T20:05:44.850Z,36.38
2023-04-20T20:08:11.775Z,37.92
2023-04-20T20:10:38.496Z,36.63
2023-04-20T20:13:05.745Z,37.97
2023-04-20T20:15:32.533Z,39.63
2023-04-20T20:17:59.588Z,36.03
2023-04-20T20:20:33.036Z,36.00
2023-04-20T20:23:00.093Z,34.65
2023-04-20T20:25:26.935Z,36.92
2023-04-20T20:27:53.793Z,38.92
2023-04-20T20:30:20.671Z,43.60
2023-04-20T20:32:47.506Z,44.67
2023-04-20T20:35:14.326Z,40.67
2023-04-20T20:37:41.642Z,43.97
2023-04-20T20:40:14.472Z,40.65
2023-04-20T20:42:47.921Z,42.10
2023-04-20T20:45:15.365Z,46.10
2023-04-20T20:47:44.439Z,38.00
2023-04-20T20:50:12.783Z,41.50
2023-04-20T20:52:39.896Z,42.33
2023-04-20T20:55:08.077Z,39.60
2023-04-20T20:57:35.522Z,39.30
2023-04-20T21:00:02.875Z,38.05
2023-04-20T21:02:29.888Z,39.28
2023-04-20T21:04:56.710Z,43.28
2023-04-20T21:07:23.464Z,41.15
2023-04-20T21:09:50.998Z,41.42
2023-04-20T21:12:17.833Z,42.38
2023-04-20T21:14:44.648Z,42.83
2023-04-20T21:17:11.398Z,42.75
2023-04-20T21:19:38.228Z,40.28
2023-04-20T21:22:05.012Z,38.90
2023-04-20T21:24:31.633Z,40.72
2023-04-20T21:26:58.273Z,37.67
2023-04-20T21:29:25.240Z,37.67
2023-04-20T21:31:52.079Z,43.38
2023-04-20T21:34:19.144Z,41.45
2023-04-20T21:36:45.843Z,40.60
2023-04-20T21:39:12.540Z,43.72
2023-04-20T21:41:39.289Z,41.03
2023-04-20T21:44:05.961Z,45.30
2023-04-20T21:46:33.109Z,43.70
2023-04-20T21:48:59.922Z,42.70
2023-04-20T21:51:27.650Z,42.40
2023-04-20T21:53:54.332Z,41.22
2023-04-20T21:56:21.175Z,41.53
2023-04-20T21:58:47.855Z,49.92
2023-04-20T22:01:14.546Z,43.90
2023-04-20T22:03:41.444Z,37.72
2023-04-20T22:06:08.604Z,39.55
2023-04-20T22:08:39.511Z,41.65
2023-04-20T22:11:07.278Z,42.17
2023-04-20T22:13:34.705Z,36.35
2023-04-20T22:16:01.425Z,38.70
2023-04-20T22:18:28.224Z,43.47
2023-04-20T22:20:54.937Z,41.80
2023-04-20T22:23:21.648Z,45.38
2023-04-20T22:25:48.406Z,45.60
2023-04-20T22:28:15.208Z,42.90
2023-04-20T22:30:42.792Z,43.13
2023-04-20T22:33:09.689Z,47.55
2023-04-20T22:35:36.556Z,52.60
2023-04-20T22:38:03.406Z,50.40
2023-04-20T22:40:30.430Z,58.58
2023-04-20T22:42:57.068Z,61.72
2023-04-20T22:45:24.060Z,60.88
2023-04-20T22:47:50.880Z,60.80
2023-04-20T22:50:17.924Z,58.25
2023-04-20T22:52:45.845Z,59.88
2023-04-20T22:55:12.684Z,60.10
2023-04-20T22:57:39.472Z,59.78
2023-04-20T23:00:10.190Z,67.20
2023-04-20T23:02:37.520Z,55.47
2023-04-20T23:05:05.738Z,65.07
2023-04-20T23:07:33.161Z,55.80
2023-04-20T23:10:00.449Z,59.08
2023-04-20T23:12:29.610Z,61.47
2023-04-20T23:15:00.576Z,67.57
2023-04-20T23:17:28.523Z,67.65
2023-04-20T23:19:56.512Z,60.38
2023-04-20T23:22:23.467Z,65.70
2023-04-20T23:24:50.624Z,71.65
2023-04-20T23:27:17.463Z,70.35
2023-04-20T23:29:44.965Z,73.03
2023-04-20T23:32:11.750Z,70.00
2023-04-20T23:34:38.601Z,72.85
2023-04-20T23:37:05.420Z,65.28
2023-04-20T23:39:36.965Z,78.95
2023-04-20T23:42:04.870Z,78.28
2023-04-20T23:44:31.685Z,80.03
2023-04-20T23:46:58.533Z,78.43
2023-04-20T23:49:25.332Z,71.75
2023-04-20T23:51:52.012Z,90.13
2023-04-20T23:54:18.772Z,111.43
2023-04-20T23:56:45.452Z,133.38
2023-04-20T23:59:12.200Z,119.07
